createdAt,value
2019-05-05T00:01:35.103Z,99795.16
2019-05-05T00:04:21.363Z,99790.10
2019-05-05T00:06:54.896Z,99794.48
2019-05-05T00:09:26.656Z,99798.27
2019-05-05T00:12:17.878Z,99797.02
2019-05-05T00:15:02.103Z,99795.16
2019-05-05T00:17:38.418Z,99795.87
2019-05-05T00:20:10.106Z,99792.76
2019-05-05T00:22:41.822Z,99788.84
2019-05-05T00:25:14.334Z,99788.91
2019-05-05T00:27:47.853Z,99789.24
2019-05-05T00:30:19.622Z,99790.09
2019-05-05T00:32:54.850Z,99784.09
2019-05-05T00:35:27.152Z,99780.52
2019-05-05T00:38:01.995Z,99784.50
2019-05-05T00:40:35.306Z,99784.30
2019-05-05T00:43:07.180Z,99785.80
2019-05-05T00:45:40.135Z,99782.13
2019-05-05T00:48:20.241Z,99781.11
2019-05-05T00:50:55.643Z,99785.80
2019-05-05T00:53:27.252Z,99781.91
2019-05-05T00:56:02.435Z,99785.42
2019-05-05T00:58:35.826Z,99786.16
2019-05-05T01:01:19.594Z,99786.28
2019-05-05T01:03:51.771Z,99788.01
2019-05-05T01:06:29.575Z,99785.00
2019-05-05T01:09:04.390Z,99776.24
2019-05-05T01:11:37.520Z,99775.73
2019-05-05T01:14:09.194Z,99769.39
2019-05-05T01:16:40.844Z,99763.92
2019-05-05T01:19:12.532Z,99766.05
2019-05-05T01:21:45.371Z,99764.78
2019-05-05T01:24:17.161Z,99762.78
2019-05-05T01:26:50.302Z,99770.50
2019-05-05T01:29:21.957Z,99769.51
2019-05-05T01:31:55.316Z,99768.43
2019-05-05T01:34:34.866Z,99770.44
2019-05-05T01:37:16.676Z,99764.98
2019-05-05T01:40:02.232Z,99772.22
2019-05-05T01:42:35.279Z,99773.55
2019-05-05T01:45:07.246Z,99772.02
2019-05-05T01:47:38.894Z,99766.82
2019-05-05T01:50:18.488Z,99767.25
2019-05-05T01:52:45.613Z,99772.16
2019-05-05T01:55:17.314Z,99774.54
2019-05-05T01:57:49.993Z,99774.73
2019-05-05T02:00:25.222Z,99769.93
2019-05-05T02:02:56.539Z,99775.04
2019-05-05T02:05:28.189Z,99776.75
2019-05-05T02:08:01.072Z,99780.09
2019-05-05T02:10:34.873Z,99778.80
2019-05-05T02:13:06.284Z,99780.02
2019-05-05T02:15:38.225Z,99776.50
2019-05-05T02:18:09.976Z,99772.00
2019-05-05T02:21:05.942Z,99774.12
2019-05-05T02:23:38.890Z,99774.94
2019-05-05T02:26:10.563Z,99773.85
2019-05-05T02:29:00.919Z,99772.37
2019-05-05T02:31:50.430Z,99769.36
2019-05-05T02:34:25.544Z,99781.09
2019-05-05T02:36:56.570Z,99773.96
2019-05-05T02:39:28.523Z,99770.59
2019-05-05T02:42:00.364Z,99779.61
2019-05-05T02:44:34.677Z,99772.85
2019-05-05T02:47:11.830Z,99773.39
2019-05-05T02:49:45.378Z,99773.39
2019-05-05T02:52:17.163Z,99784.89
2019-05-05T02:54:49.803Z,99781.14
2019-05-05T02:57:21.519Z,99789.06
2019-05-05T03:00:14.874Z,99790.75
2019-05-05T03:02:48.431Z,99792.40
2019-05-05T03:05:20.185Z,99795.92
2019-05-05T03:07:51.902Z,99796.22
2019-05-05T03:10:24.687Z,99799.54
2019-05-05T03:12:56.359Z,99798.23
2019-05-05T03:15:55.021Z,99798.60
2019-05-05T03:18:26.384Z,99796.53
2019-05-05T03:21:04.508Z,99799.64
2019-05-05T03:23:33.434Z,99796.92
2019-05-05T03:26:05.314Z,99796.64
2019-05-05T03:28:45.360Z,99800.03
2019-05-05T03:31:17.666Z,99803.72
2019-05-05T03:33:54.702Z,99807.41
2019-05-05T03:36:24.960Z,99809.20
2019-05-05T03:38:56.856Z,99807.05
2019-05-05T03:41:35.351Z,99809.30
2019-05-05T03:44:28.853Z,99815.14
2019-05-05T03:47:00.620Z,99816.06
2019-05-05T03:49:33.812Z,99810.77
2019-05-05T03:52:05.913Z,99813.33
2019-05-05T03:54:37.623Z,99824.47
2019-05-05T03:57:09.376Z,99814.69
2019-05-05T03:59:44.042Z,99818.47
2019-05-05T04:02:37.265Z,99820.67
2019-05-05T04:05:26.771Z,99822.35
2019-05-05T04:07:58.445Z,99825.79
2019-05-05T04:10:33.500Z,99828.31
2019-05-05T04:13:07.047Z,99820.84
2019-05-05T04:15:44.198Z,99825.30
2019-05-05T04:18:23.734Z,99832.21
2019-05-05T04:20:54.904Z,99831.12
2019-05-05T04:23:27.057Z,99827.97
2019-05-05T04:25:58.741Z,99833.09
2019-05-05T04:28:30.479Z,99833.66
2019-05-05T04:31:04.093Z,99838.27
2019-05-05T04:33:35.586Z,99841.19
2019-05-05T04:36:07.648Z,99844.86
2019-05-05T04:38:39.525Z,99846.00
2019-05-05T04:41:11.257Z,99841.75
2019-05-05T04:43:44.170Z,99841.37
2019-05-05T04:46:16.057Z,99838.51
2019-05-05T04:48:56.756Z,99842.19
2019-05-05T04:51:46.296Z,99844.93
2019-05-05T04:54:27.090Z,99847.01
2019-05-05T04:56:58.756Z,99849.19
2019-05-05T04:59:30.420Z,99852.53
2019-05-05T05:02:06.725Z,99849.21
2019-05-05T05:04:46.936Z,99851.58
2019-05-05T05:07:19.339Z,99852.19
2019-05-05T05:09:51.564Z,99849.73
2019-05-05T05:12:25.004Z,99852.77
2019-05-05T05:14:57.054Z,99860.16
2019-05-05T05:17:36.653Z,99866.48
2019-05-05T05:20:08.337Z,99873.56
2019-05-05T05:22:39.991Z,99875.19
2019-05-05T05:25:14.508Z,99876.67
2019-05-05T05:27:46.194Z,99879.97
2019-05-05T05:30:24.138Z,99883.28
2019-05-05T05:32:56.527Z,99878.91
2019-05-05T05:35:28.208Z,99891.12
2019-05-05T05:38:01.639Z,99898.15
2019-05-05T05:40:41.166Z,99895.87
2019-05-05T05:43:16.736Z,99896.55
2019-05-05T05:45:58.103Z,99895.01
2019-05-05T05:48:49.750Z,99905.89
2019-05-05T05:51:23.800Z,99913.02
2019-05-05T05:53:55.596Z,99910.07
2019-05-05T05:56:27.337Z,99915.66
2019-05-05T05:58:58.996Z,99912.47
2019-05-05T06:01:34.392Z,99911.98
2019-05-05T06:04:05.761Z,99909.08
2019-05-05T06:06:37.472Z,99922.38
2019-05-05T06:09:09.209Z,99915.61
2019-05-05T06:11:40.892Z,99922.99
2019-05-05T06:14:14.433Z,99927.44
2019-05-05T06:16:47.117Z,99932.55
2019-05-05T06:19:18.970Z,99930.09
2019-05-05T06:21:54.272Z,99932.00
2019-05-05T06:24:27.036Z,99934.42
2019-05-05T06:26:59.878Z,99935.11
2019-05-05T06:29:34.533Z,99946.47
2019-05-05T06:32:08.000Z,99940.88
2019-05-05T06:34:39.688Z,99940.87
2019-05-05T06:37:11.364Z,99940.48
2019-05-05T06:39:43.985Z,99937.12
2019-05-05T06:42:31.224Z,99938.40
2019-05-05T06:45:11.413Z,99943.99
2019-05-05T06:47:44.696Z,99953.78
2019-05-05T06:50:16.339Z,99953.86
2019-05-05T06:52:48.372Z,99955.92
2019-05-05T06:55:20.285Z,99955.16
2019-05-05T06:57:53.890Z,99956.05
2019-05-05T07:00:25.673Z,99961.43
2019-05-05T07:02:57.325Z,99961.72
2019-05-05T07:05:29.083Z,99968.77
2019-05-05T07:08:00.715Z,99970.98
2019-05-05T07:10:33.880Z,99964.56
2019-05-05T07:13:06.197Z,99968.95
2019-05-05T07:15:38.042Z,99977.15
2019-05-05T07:18:19.671Z,99973.68
2019-05-05T07:21:03.813Z,99970.03
2019-05-05T07:23:35.680Z,99966.48
2019-05-05T07:26:07.312Z,99980.61
2019-05-05T07:28:38.995Z,99982.86
2019-05-05T07:31:10.624Z,99980.95
2019-05-05T07:33:43.809Z,99983.78
2019-05-05T07:36:34.028Z,99982.95
2019-05-05T07:39:08.716Z,99986.84
2019-05-05T07:41:40.793Z,99985.27
2019-05-05T07:44:25.787Z,99992.72
2019-05-05T07:46:45.835Z,99994.16
2019-05-05T07:49:17.499Z,99984.38
2019-05-05T07:51:49.423Z,99980.53
2019-05-05T07:54:23.639Z,99981.81
2019-05-05T07:56:55.839Z,99993.44
2019-05-05T07:59:30.117Z,99991.28
2019-05-05T08:02:04.071Z,99990.10
2019-05-05T08:04:36.682Z,99992.16
2019-05-05T08:07:08.550Z,99987.28
2019-05-05T08:09:54.266Z,99992.06
2019-05-05T08:12:26.550Z,99991.96
2019-05-05T08:15:08.838Z,99990.52
2019-05-05T08:18:09.763Z,99998.02
2019-05-05T08:20:44.421Z,99987.75
2019-05-05T08:23:31.827Z,99981.70
2019-05-05T08:26:23.670Z,99979.82
2019-05-05T08:29:14.353Z,99996.58
2019-05-05T08:32:04.338Z,99995.55
2019-05-05T08:34:36.398Z,99995.41
2019-05-05T08:37:08.137Z,100000.50
2019-05-05T08:39:40.482Z,100000.77
2019-05-05T08:42:14.269Z,99991.47
2019-05-05T08:44:45.602Z,99991.33
2019-05-05T08:47:17.414Z,99983.63
2019-05-05T08:49:49.050Z,99998.38
2019-05-05T08:52:20.728Z,99990.42
2019-05-05T08:54:54.169Z,99993.72
2019-05-05T08:57:25.978Z,100002.12
2019-05-05T08:59:58.128Z,100001.92
2019-05-05T09:02:33.022Z,100003.16
2019-05-05T09:05:04.238Z,100005.70
2019-05-05T09:07:36.637Z,100010.84
2019-05-05T09:10:08.702Z,100005.13
2019-05-05T09:12:43.712Z,100010.39
2019-05-05T09:15:18.366Z,100007.02
2019-05-05T09:17:50.159Z,100004.16
2019-05-05T09:20:24.055Z,100006.89
2019-05-05T09:22:57.299Z,100017.84
2019-05-05T09:25:54.040Z,100009.94
2019-05-05T09:28:30.392Z,100012.94
2019-05-05T09:31:04.045Z,100003.63
2019-05-05T09:33:35.470Z,100002.04
2019-05-05T09:36:07.362Z,100012.92
2019-05-05T09:38:39.139Z,100009.40
2019-05-05T09:41:10.802Z,100013.59
2019-05-05T09:43:48.721Z,100012.54
2019-05-05T09:46:20.396Z,100016.22
2019-05-05T09:48:54.022Z,100023.77
2019-05-05T09:51:25.458Z,100023.77
2019-05-05T09:54:10.249Z,100027.44
2019-05-05T09:56:30.795Z,100018.85
2019-05-05T09:59:03.782Z,100023.44
2019-05-05T10:01:35.612Z,100029.02
2019-05-05T10:04:11.231Z,100024.94
2019-05-05T10:06:47.620Z,100023.16
2019-05-05T10:09:16.380Z,100021.17
2019-05-05T10:11:48.080Z,100023.88
2019-05-05T10:14:19.794Z,100028.05
2019-05-05T10:16:51.637Z,100019.72
2019-05-05T10:19:24.366Z,100026.92
2019-05-05T10:21:56.337Z,100023.80
2019-05-05T10:24:39.342Z,100021.87
2019-05-05T10:27:10.982Z,100018.95
2019-05-05T10:29:44.222Z,100013.34
2019-05-05T10:32:16.073Z,100013.41
2019-05-05T10:35:01.034Z,100014.22
2019-05-05T10:37:34.659Z,100012.56
2019-05-05T10:40:31.504Z,100016.60
2019-05-05T10:43:04.405Z,100017.98
2019-05-05T10:45:36.549Z,100012.89
2019-05-05T10:48:10.116Z,100010.13
2019-05-05T10:50:41.750Z,100012.69
2019-05-05T10:53:13.701Z,100019.52
2019-05-05T10:55:45.465Z,100009.70
2019-05-05T10:58:17.127Z,100011.84
2019-05-05T11:00:54.481Z,100009.37
2019-05-05T11:03:26.465Z,100014.28
2019-05-05T11:05:58.248Z,100016.67
2019-05-05T11:08:30.875Z,100010.74
2019-05-05T11:11:04.206Z,100011.08
2019-05-05T11:13:37.354Z,100010.47
2019-05-05T11:16:09.180Z,100002.71
2019-05-05T11:18:40.847Z,99996.70
2019-05-05T11:21:14.604Z,100005.88
2019-05-05T11:23:46.700Z,100002.16
2019-05-05T11:26:18.397Z,100000.53
2019-05-05T11:28:50.152Z,100002.12
2019-05-05T11:31:23.819Z,100007.44
2019-05-05T11:34:20.174Z,100007.11
2019-05-05T11:37:06.645Z,100001.99
2019-05-05T11:39:38.376Z,100005.45
2019-05-05T11:42:10.010Z,99996.66
2019-05-05T11:44:41.666Z,99997.85
2019-05-05T11:47:14.018Z,99988.13
2019-05-05T11:49:46.715Z,99988.06
2019-05-05T11:52:18.537Z,99980.93
2019-05-05T11:54:50.755Z,99980.17
2019-05-05T11:57:23.968Z,99976.04
2019-05-05T11:59:55.640Z,99986.79
2019-05-05T12:02:28.505Z,99984.19
2019-05-05T12:05:00.257Z,99979.64
2019-05-05T12:07:34.096Z,99978.45
2019-05-05T12:10:07.039Z,99977.50
2019-05-05T12:12:39.783Z,99971.59
2019-05-05T12:15:13.415Z,99972.52
2019-05-05T12:17:46.933Z,99968.48
2019-05-05T12:20:24.115Z,99982.84
2019-05-05T12:22:57.569Z,99970.36
2019-05-05T12:26:00.408Z,99965.09
2019-05-05T12:28:45.475Z,99959.59
2019-05-05T12:31:24.777Z,99966.16
2019-05-05T12:33:56.417Z,99963.34
2019-05-05T12:36:31.486Z,99967.47
2019-05-05T12:39:04.812Z,99963.49
2019-05-05T12:41:38.004Z,99961.08
2019-05-05T12:44:11.408Z,99960.63
2019-05-05T12:46:53.239Z,99965.40
2019-05-05T12:49:25.532Z,99959.53
2019-05-05T12:51:57.870Z,99963.20
2019-05-05T12:54:29.630Z,99965.28
2019-05-05T12:57:01.299Z,99952.56
2019-05-05T12:59:33.973Z,99947.48
2019-05-05T13:02:06.249Z,99944.48
2019-05-05T13:04:38.027Z,99940.69
2019-05-05T13:07:09.816Z,99945.26
2019-05-05T13:09:41.536Z,99946.03
2019-05-05T13:12:15.052Z,99944.48
2019-05-05T13:14:46.729Z,99937.53
2019-05-05T13:17:19.755Z,99939.91
2019-05-05T13:20:24.593Z,99934.67
2019-05-05T13:23:29.784Z,99932.92
2019-05-05T13:26:06.214Z,99934.55
2019-05-05T13:28:37.851Z,99934.91
2019-05-05T13:31:09.893Z,99924.81
2019-05-05T13:33:41.621Z,99925.42
2019-05-05T13:36:13.834Z,99923.94
2019-05-05T13:38:45.868Z,99923.00
2019-05-05T13:41:17.501Z,99924.04
2019-05-05T13:43:49.383Z,99926.39
2019-05-05T13:46:24.806Z,99930.56
2019-05-05T13:49:15.898Z,99922.06
2019-05-05T13:51:47.556Z,99924.66
2019-05-05T13:54:20.100Z,99925.42
2019-05-05T13:56:52.939Z,99922.95
2019-05-05T13:59:25.608Z,99921.22
2019-05-05T14:01:57.529Z,99919.81
2019-05-05T14:04:29.620Z,99918.25
2019-05-05T14:07:01.350Z,99921.34
2019-05-05T14:09:33.262Z,99912.34
2019-05-05T14:12:05.409Z,99919.77
2019-05-05T14:14:37.078Z,99914.99
2019-05-05T14:17:08.720Z,99909.34
2019-05-05T14:19:40.549Z,99907.23
2019-05-05T14:22:12.542Z,99905.16
2019-05-05T14:24:53.748Z,99902.92
2019-05-05T14:27:26.318Z,99898.84
2019-05-05T14:30:14.348Z,99900.56
2019-05-05T14:32:46.606Z,99894.48
2019-05-05T14:35:27.497Z,99890.28
2019-05-05T14:38:03.898Z,99897.17
2019-05-05T14:40:35.711Z,99894.44
2019-05-05T14:43:07.387Z,99892.70
2019-05-05T14:45:41.597Z,99891.95
2019-05-05T14:48:13.964Z,99892.94
2019-05-05T14:50:45.654Z,99889.95
2019-05-05T14:53:18.133Z,99887.16
2019-05-05T14:55:50.057Z,99890.87
2019-05-05T14:58:21.695Z,99892.78
2019-05-05T15:00:53.371Z,99896.48
2019-05-05T15:03:25.092Z,99895.39
2019-05-05T15:06:10.060Z,99900.14
2019-05-05T15:09:13.872Z,99900.58
2019-05-05T15:12:04.722Z,99898.81
2019-05-05T15:14:39.315Z,99906.37
2019-05-05T15:17:14.134Z,99908.00
2019-05-05T15:19:46.031Z,99902.67
2019-05-05T15:22:17.735Z,99907.02
2019-05-05T15:24:49.998Z,99912.22
2019-05-05T15:27:24.171Z,99911.03
2019-05-05T15:29:56.077Z,99911.09
2019-05-05T15:32:27.890Z,99910.98
2019-05-05T15:34:59.616Z,99910.67
2019-05-05T15:37:31.267Z,99910.18
2019-05-05T15:40:03.983Z,99910.45
2019-05-05T15:42:35.799Z,99910.16
2019-05-05T15:45:09.720Z,99914.70
2019-05-05T15:47:44.465Z,99916.87
2019-05-05T15:50:17.852Z,99919.09
2019-05-05T15:52:49.433Z,99920.27
2019-05-05T15:55:21.095Z,99921.62
2019-05-05T15:57:52.841Z,99926.20
2019-05-05T16:00:25.642Z,99927.03
2019-05-05T16:02:57.570Z,99927.34
2019-05-05T16:05:29.451Z,99937.31
2019-05-05T16:08:01.158Z,99939.52
2019-05-05T16:10:34.669Z,99933.95
2019-05-05T16:13:06.241Z,99932.69
2019-05-05T16:16:00.386Z,99931.63
2019-05-05T16:19:02.521Z,99940.98
2019-05-05T16:21:50.190Z,99938.77
2019-05-05T16:24:30.829Z,99943.98
2019-05-05T16:27:17.928Z,99938.86
2019-05-05T16:29:39.627Z,99941.16
2019-05-05T16:32:19.544Z,99949.61
2019-05-05T16:34:44.791Z,99956.62
2019-05-05T16:37:16.516Z,99958.20
2019-05-05T16:39:49.488Z,99959.57
2019-05-05T16:42:21.182Z,99960.61
2019-05-05T16:44:56.876Z,99959.92
2019-05-05T16:47:29.785Z,99968.20
2019-05-05T16:50:04.101Z,99965.27
2019-05-05T16:52:40.768Z,99961.42
2019-05-05T16:55:31.746Z,99964.14
2019-05-05T16:58:04.009Z,99959.94
2019-05-05T17:00:38.563Z,99963.25
2019-05-05T17:03:10.704Z,99965.42
2019-05-05T17:05:44.148Z,99961.58
2019-05-05T17:08:15.773Z,99972.34
2019-05-05T17:10:48.823Z,99972.13
2019-05-05T17:13:34.479Z,99971.95
2019-05-05T17:16:44.050Z,99966.20
2019-05-05T17:19:41.635Z,99972.39
2019-05-05T17:22:38.559Z,99969.42
2019-05-05T17:25:11.267Z,99982.36
2019-05-05T17:27:48.794Z,99978.52
2019-05-05T17:30:16.730Z,99976.63
2019-05-05T17:32:48.412Z,99966.02
2019-05-05T17:35:20.447Z,99964.32
2019-05-05T17:37:53.875Z,99968.47
2019-05-05T17:40:33.637Z,99968.72
2019-05-05T17:43:24.334Z,99967.91
2019-05-05T17:46:16.569Z,99961.56
2019-05-05T17:49:07.146Z,99959.34
2019-05-05T17:51:43.640Z,99958.74
2019-05-05T17:54:26.991Z,99967.78
2019-05-05T17:56:58.652Z,99960.98
2019-05-05T17:59:30.480Z,99958.48
2019-05-05T18:02:04.734Z,99961.60
2019-05-05T18:04:37.366Z,99963.81
2019-05-05T18:07:14.372Z,99960.07
2019-05-05T18:10:11.198Z,99964.80
2019-05-05T18:13:03.597Z,99964.11
2019-05-05T18:16:10.764Z,99962.17
2019-05-05T18:18:44.270Z,99964.96
2019-05-05T18:21:17.386Z,99968.42
2019-05-05T18:23:49.107Z,99967.32
2019-05-05T18:26:24.348Z,99959.77
2019-05-05T18:28:57.541Z,99959.83
2019-05-05T18:31:29.217Z,99955.34
2019-05-05T18:34:01.328Z,99960.59
2019-05-05T18:36:33.731Z,99963.91
2019-05-05T18:39:06.655Z,99960.32
2019-05-05T18:41:52.226Z,99954.50
2019-05-05T18:44:30.984Z,99963.02
2019-05-05T18:47:18.698Z,99969.00
2019-05-05T18:57:56.388Z,99978.22
2019-05-05T19:00:45.413Z,99981.91
2019-05-05T19:03:21.162Z,99996.91
2019-05-05T19:06:00.091Z,100000.46
2019-05-05T19:08:53.778Z,99997.27
2019-05-05T19:11:18.363Z,99995.45
2019-05-05T19:13:50.160Z,100001.46
2019-05-05T19:16:23.778Z,99997.28
2019-05-05T19:18:55.769Z,99994.58
2019-05-05T19:21:35.978Z,100002.41
2019-05-05T19:24:07.948Z,99998.55
2019-05-05T19:26:42.789Z,100001.03
2019-05-05T19:29:15.423Z,100006.84
2019-05-05T19:31:47.139Z,99991.32
2019-05-05T19:34:20.588Z,100018.88
2019-05-05T19:36:55.145Z,100024.14
2019-05-05T19:39:27.352Z,100030.13
2019-05-05T19:42:00.889Z,100024.16
2019-05-05T19:44:33.988Z,100035.16
2019-05-05T19:47:17.098Z,100033.18
2019-05-05T19:49:55.302Z,100036.41
2019-05-05T19:52:29.912Z,100044.73
2019-05-05T19:55:04.260Z,100050.37
2019-05-05T19:57:37.056Z,100051.71
2019-05-05T20:00:08.924Z,100064.84
2019-05-05T20:02:43.940Z,100068.61
2019-05-05T20:05:16.170Z,100077.37
2019-05-05T20:07:49.803Z,100082.98
2019-05-05T20:10:21.607Z,100087.48
2019-05-05T20:12:54.141Z,100093.18
2019-05-05T20:15:33.805Z,100090.27
2019-05-05T20:31:45.588Z,100103.59
2019-05-05T20:34:35.168Z,100109.75
2019-05-05T20:37:13.997Z,100115.33
2019-05-05T20:39:46.456Z,100109.33
2019-05-05T20:42:18.135Z,100114.50
2019-05-05T20:44:49.815Z,100115.00
2019-05-05T20:47:24.743Z,100116.66
2019-05-05T20:49:56.428Z,100120.81
2019-05-05T20:52:28.344Z,100124.72
2019-05-05T20:55:00.060Z,100118.37
2019-05-05T20:57:34.334Z,100123.47
2019-05-05T21:00:06.316Z,100132.37
2019-05-05T21:02:39.519Z,100137.89
2019-05-05T21:05:11.175Z,100144.72
2019-05-05T21:07:44.365Z,100151.33
2019-05-05T21:10:16.432Z,100152.00
2019-05-05T21:12:49.184Z,100158.77
2019-05-05T21:15:20.869Z,100158.23
2019-05-05T21:17:54.130Z,100167.83
2019-05-05T21:20:26.114Z,100166.59
2019-05-05T21:23:05.779Z,100175.20
2019-05-05T21:25:39.727Z,100179.52
2019-05-05T21:28:11.485Z,100187.25
2019-05-05T21:30:45.329Z,100198.91
2019-05-05T21:33:19.846Z,100201.71
2019-05-05T21:35:52.024Z,100196.85
2019-05-05T21:38:23.830Z,100196.77
2019-05-05T21:40:56.110Z,100192.20
2019-05-05T21:43:28.224Z,100195.80
2019-05-05T21:45:59.919Z,100196.41
2019-05-05T21:48:35.162Z,100202.48
2019-05-05T21:51:14.654Z,100202.02
2019-05-05T21:54:14.566Z,100204.34
2019-05-05T21:57:06.958Z,100202.66
2019-05-05T21:59:51.717Z,100211.34
2019-05-05T22:02:15.187Z,100215.02
2019-05-05T22:04:46.617Z,100215.82
2019-05-05T22:07:18.759Z,100222.82
2019-05-05T22:09:50.737Z,100214.28
2019-05-05T22:12:24.284Z,100219.59
2019-05-05T22:15:00.183Z,100218.94
2019-05-05T22:17:33.601Z,100222.94
2019-05-05T22:20:16.002Z,100227.53
2019-05-05T22:22:48.686Z,100220.13
2019-05-05T22:25:21.156Z,100220.61
2019-05-05T22:27:54.523Z,100219.41
2019-05-05T22:30:26.994Z,100220.48
2019-05-05T22:33:05.744Z,100215.40
2019-05-05T22:35:36.031Z,100216.33
2019-05-05T22:38:08.520Z,100223.19
2019-05-05T22:40:40.298Z,100219.95
2019-05-05T22:43:14.379Z,100216.20
2019-05-05T22:45:45.945Z,100214.42
2019-05-05T22:48:17.825Z,100212.27
2019-05-05T22:50:50.016Z,100212.66
2019-05-05T22:53:23.901Z,100203.35
2019-05-05T22:55:55.509Z,100204.48
2019-05-05T22:58:27.354Z,100206.55
2019-05-05T23:00:59.146Z,100211.53
2019-05-05T23:04:03.717Z,100219.28
2019-05-05T23:06:35.659Z,100218.09
2019-05-05T23:09:14.594Z,100221.62
2019-05-05T23:11:47.817Z,100223.28
2019-05-05T23:14:28.701Z,100225.20
2019-05-05T23:20:18.280Z,100221.20
2019-05-05T23:23:07.618Z,100225.39
2019-05-05T23:25:45.769Z,100214.33
2019-05-05T23:28:17.902Z,100224.02
2019-05-05T23:30:50.916Z,100219.08
2019-05-05T23:33:24.519Z,100223.48
2019-05-05T23:35:56.731Z,100229.94
2019-05-05T23:38:28.729Z,100229.13
2019-05-05T23:41:03.701Z,100226.00
2019-05-05T23:43:35.202Z,100225.59
2019-05-05T23:46:07.014Z,100227.48
2019-05-05T23:48:40.467Z,100227.73
2019-05-05T23:51:14.002Z,100229.41
2019-05-05T23:53:45.750Z,100230.01
2019-05-05T23:56:17.516Z,100228.43
2019-05-05T23:58:49.255Z,100224.14
